sensor_id;sensor_type;location;lat;lon;timestamp;pressure;altitude;pressure_sealevel;temperature;humidity
56182;BME280;51963;46.052;14.544;2023-01-08T00:00:55;98413.84;;;7.96;100.00
56182;BME280;51963;46.052;14.544;2023-01-08T00:03:21;98413.06;;;7.96;100.00
56182;BME280;51963;46.052;14.544;2023-01-08T00:05:47;98406.63;;;7.90;100.00
56182;BME280;51963;46.052;14.544;2023-01-08T00:08:13;98412.56;;;7.92;100.00
56182;BME280;51963;46.052;14.544;2023-01-08T00:10:38;98408.25;;;7.99;100.00
56182;BME280;51963;46.052;14.544;2023-01-08T00:13:05;98403.03;;;7.83;100.00
56182;BME280;51963;46.052;14.544;2023-01-08T00:15:32;98401.00;;;8.01;100.00
56182;BME280;51963;46.052;14.544;2023-01-08T00:17:59;98404.66;;;7.92;100.00
56182;BME280;51963;46.052;14.544;2023-01-08T00:20:25;98394.66;;;7.79;100.00
56182;BME280;51963;46.052;14.544;2023-01-08T00:22:51;98409.59;;;7.95;100.00
56182;BME280;51963;46.052;14.544;2023-01-08T00:25:17;98397.38;;;8.02;100.00
56182;BME280;51963;46.052;14.544;2023-01-08T00:27:44;98403.97;;;7.98;100.00
56182;BME280;51963;46.052;14.544;2023-01-08T00:30:10;98404.28;;;8.03;100.00
56182;BME280;51963;46.052;14.544;2023-01-08T00:32:36;98400.72;;;7.88;100.00
56182;BME280;51963;46.052;14.544;2023-01-08T00:35:01;98401.50;;;8.05;100.00
56182;BME280;51963;46.052;14.544;2023-01-08T00:37:27;98397.38;;;8.02;100.00
56182;BME280;51963;46.052;14.544;2023-01-08T00:39:54;98399.88;;;7.96;100.00
56182;BME280;51963;46.052;14.544;2023-01-08T00:42:20;98402.81;;;7.92;100.00
56182;BME280;51963;46.052;14.544;2023-01-08T00:44:46;98397.91;;;7.89;100.00
56182;BME280;51963;46.052;14.544;2023-01-08T00:47:11;98375.22;;;7.80;100.00
56182;BME280;51963;46.052;14.544;2023-01-08T00:49:37;98388.88;;;7.84;100.00
56182;BME280;51963;46.052;14.544;2023-01-08T00:52:03;98407.28;;;7.92;100.00
56182;BME280;51963;46.052;14.544;2023-01-08T00:54:29;98404.63;;;8.00;100.00
56182;BME280;51963;46.052;14.544;2023-01-08T00:56:55;98393.13;;;7.93;100.00
56182;BME280;51963;46.052;14.544;2023-01-08T00:59:21;98398.41;;;7.93;100.00
56182;BME280;51963;46.052;14.544;2023-01-08T01:01:47;98411.22;;;7.96;100.00
56182;BME280;51963;46.052;14.544;2023-01-08T01:04:13;98402.66;;;7.94;100.00
56182;BME280;51963;46.052;14.544;2023-01-08T01:06:41;98395.75;;;8.01;100.00
56182;BME280;51963;46.052;14.544;2023-01-08T01:09:07;98417.13;;;8.06;100.00
56182;BME280;51963;46.052;14.544;2023-01-08T01:11:33;98398.19;;;8.11;100.00
56182;BME280;51963;46.052;14.544;2023-01-08T01:14:00;98411.69;;;8.08;100.00
56182;BME280;51963;46.052;14.544;2023-01-08T01:16:26;98411.81;;;8.15;100.00
56182;BME280;51963;46.052;14.544;2023-01-08T01:18:52;98415.50;;;7.97;100.00
56182;BME280;51963;46.052;14.544;2023-01-08T01:21:25;98417.81;;;7.92;100.00
56182;BME280;51963;46.052;14.544;2023-01-08T01:23:56;98413.34;;;7.92;100.00
56182;BME280;51963;46.052;14.544;2023-01-08T01:26:23;98406.59;;;7.98;100.00
56182;BME280;51963;46.052;14.544;2023-01-08T01:28:51;98411.06;;;7.98;100.00
56182;BME280;51963;46.052;14.544;2023-01-08T01:31:18;98408.44;;;7.89;100.00
56182;BME280;51963;46.052;14.544;2023-01-08T01:33:44;98398.13;;;7.80;100.00
56182;BME280;51963;46.052;14.544;2023-01-08T01:36:11;98417.47;;;7.95;100.00
56182;BME280;51963;46.052;14.544;2023-01-08T01:38:41;98416.69;;;7.78;100.00
56182;BME280;51963;46.052;14.544;2023-01-08T01:41:12;98411.09;;;7.73;100.00
56182;BME280;51963;46.052;14.544;2023-01-08T01:43:42;98422.78;;;7.78;100.00
56182;BME280;51963;46.052;14.544;2023-01-08T01:46:23;98415.88;;;7.86;100.00
56182;BME280;51963;46.052;14.544;2023-01-08T01:48:53;98406.84;;;7.72;100.00
56182;BME280;51963;46.052;14.544;2023-01-08T01:51:21;98408.63;;;7.80;100.00
56182;BME280;51963;46.052;14.544;2023-01-08T01:53:49;98393.53;;;7.73;100.00
56182;BME280;51963;46.052;14.544;2023-01-08T01:56:15;98408.63;;;7.88;100.00
56182;BME280;51963;46.052;14.544;2023-01-08T01:58:41;98412.88;;;7.89;100.00
56182;BME280;51963;46.052;14.544;2023-01-08T02:01:07;98403.16;;;7.89;100.00
56182;BME280;51963;46.052;14.544;2023-01-08T02:03:36;98406.50;;;7.75;100.00
56182;BME280;51963;46.052;14.544;2023-01-08T02:06:04;98403.00;;;7.91;100.00
56182;BME280;51963;46.052;14.544;2023-01-08T02:14:05;98399.69;;;7.97;100.00
56182;BME280;51963;46.052;14.544;2023-01-08T02:16:49;98397.09;;;7.89;100.00
56182;BME280;51963;46.052;14.544;2023-01-08T02:19:42;98394.78;;;7.94;100.00
56182;BME280;51963;46.052;14.544;2023-01-08T02:25:07;98389.88;;;7.83;100.00
56182;BME280;51963;46.052;14.544;2023-01-08T02:27:35;98391.84;;;7.89;100.00
56182;BME280;51963;46.052;14.544;2023-01-08T02:30:04;98394.00;;;7.77;100.00
56182;BME280;51963;46.052;14.544;2023-01-08T02:32:36;98385.59;;;7.82;100.00
56182;BME280;51963;46.052;14.544;2023-01-08T02:35:04;98391.53;;;7.75;100.00
56182;BME280;51963;46.052;14.544;2023-01-08T02:37:30;98391.66;;;7.82;100.00
56182;BME280;51963;46.052;14.544;2023-01-08T02:40:14;98377.91;;;7.63;100.00
56182;BME280;51963;46.052;14.544;2023-01-08T02:42:50;98387.25;;;7.83;100.00
56182;BME280;51963;46.052;14.544;2023-01-08T02:50:58;98369.22;;;7.63;100.00
56182;BME280;51963;46.052;14.544;2023-01-08T02:53:31;98370.22;;;7.54;100.00
56182;BME280;51963;46.052;14.544;2023-01-08T02:56:05;98360.38;;;7.39;100.00
56182;BME280;51963;46.052;14.544;2023-01-08T02:58:33;98375.81;;;7.51;100.00
56182;BME280;51963;46.052;14.544;2023-01-08T03:01:06;98367.63;;;7.37;100.00
56182;BME280;51963;46.052;14.544;2023-01-08T03:03:33;98360.38;;;7.39;100.00
56182;BME280;51963;46.052;14.544;2023-01-08T03:06:05;98353.31;;;7.31;100.00
56182;BME280;51963;46.052;14.544;2023-01-08T03:08:38;98327.03;;;7.15;100.00
56182;BME280;51963;46.052;14.544;2023-01-08T03:11:07;98351.53;;;7.32;100.00
56182;BME280;51963;46.052;14.544;2023-01-08T03:16:48;98347.59;;;7.19;100.00
56182;BME280;51963;46.052;14.544;2023-01-08T03:19:44;98339.72;;;7.19;100.00
56182;BME280;51963;46.052;14.544;2023-01-08T03:22:14;98334.44;;;7.19;100.00
56182;BME280;51963;46.052;14.544;2023-01-08T03:24:43;98332.31;;;7.15;100.00
56182;BME280;51963;46.052;14.544;2023-01-08T03:27:15;98333.13;;;7.15;100.00
56182;BME280;51963;46.052;14.544;2023-01-08T03:29:43;98336.09;;;7.21;100.00
56182;BME280;51963;46.052;14.544;2023-01-08T03:32:12;98323.28;;;7.09;100.00
56182;BME280;51963;46.052;14.544;2023-01-08T03:34:42;98326.06;;;7.16;100.00
56182;BME280;51963;46.052;14.544;2023-01-08T03:37:10;98334.44;;;7.19;100.00
56182;BME280;51963;46.052;14.544;2023-01-08T03:39:43;98325.06;;;7.17;100.00
56182;BME280;51963;46.052;14.544;2023-01-08T03:42:13;98310.47;;;7.14;100.00
56182;BME280;51963;46.052;14.544;2023-01-08T03:44:41;98319.31;;;7.30;100.00
56182;BME280;51963;46.052;14.544;2023-01-08T03:47:08;98318.34;;;7.14;100.00
56182;BME280;51963;46.052;14.544;2023-01-08T03:49:35;98313.09;;;7.14;100.00
56182;BME280;51963;46.052;14.544;2023-01-08T03:52:02;98295.84;;;6.95;100.00
56182;BME280;51963;46.052;14.544;2023-01-08T03:54:33;98308.19;;;7.03;100.00
56182;BME280;51963;46.052;14.544;2023-01-08T03:57:00;98303.56;;;7.05;100.00
56182;BME280;51963;46.052;14.544;2023-01-08T03:59:26;98296.69;;;7.04;100.00
56182;BME280;51963;46.052;14.544;2023-01-08T04:01:51;98286.50;;;6.93;100.00
56182;BME280;51963;46.052;14.544;2023-01-08T04:04:17;98290.13;;;6.92;100.00
56182;BME280;51963;46.052;14.544;2023-01-08T04:06:43;98278.56;;;7.17;100.00
56182;BME280;51963;46.052;14.544;2023-01-08T04:09:09;98268.56;;;6.96;100.00
56182;BME280;51963;46.052;14.544;2023-01-08T04:11:34;98274.69;;;6.88;100.00
56182;BME280;51963;46.052;14.544;2023-01-08T04:14:00;98274.03;;;6.86;100.00
56182;BME280;51963;46.052;14.544;2023-01-08T04:16:26;98278.28;;;6.87;100.00
56182;BME280;51963;46.052;14.544;2023-01-08T04:18:51;98265.50;;;6.84;100.00
56182;BME280;51963;46.052;14.544;2023-01-08T04:21:17;98277.00;;;6.83;100.00
56182;BME280;51963;46.052;14.544;2023-01-08T04:23:43;98279.44;;;6.85;100.00
56182;BME280;51963;46.052;14.544;2023-01-08T04:26:09;98280.41;;;6.92;100.00
56182;BME280;51963;46.052;14.544;2023-01-08T04:28:35;98269.06;;;7.08;100.00
56182;BME280;51963;46.052;14.544;2023-01-08T04:31:08;98265.13;;;7.12;100.00
56182;BME280;51963;46.052;14.544;2023-01-08T04:33:35;98263.09;;;7.31;100.00
56182;BME280;51963;46.052;14.544;2023-01-08T04:36:02;98252.56;;;7.31;100.00
56182;BME280;51963;46.052;14.544;2023-01-08T04:38:28;98255.16;;;7.39;100.00
56182;BME280;51963;46.052;14.544;2023-01-08T04:41:00;98252.19;;;7.42;100.00
56182;BME280;51963;46.052;14.544;2023-01-08T04:43:26;98261.25;;;7.40;100.00
56182;BME280;51963;46.052;14.544;2023-01-08T04:45:59;98254.69;;;7.36;100.00
56182;BME280;51963;46.052;14.544;2023-01-08T04:48:27;98263.50;;;7.51;100.00
56182;BME280;51963;46.052;14.544;2023-01-08T04:50:53;98261.03;;;7.58;100.00
56182;BME280;51963;46.052;14.544;2023-01-08T04:53:19;98262.19;;;7.47;100.00
56182;BME280;51963;46.052;14.544;2023-01-08T04:55:45;98258.13;;;7.44;100.00
56182;BME280;51963;46.052;14.544;2023-01-08T04:58:10;98253.13;;;7.58;100.00
56182;BME280;51963;46.052;14.544;2023-01-08T05:00:38;98252.63;;;7.54;100.00
56182;BME280;51963;46.052;14.544;2023-01-08T05:03:03;98251.19;;;7.52;100.00
56182;BME280;51963;46.052;14.544;2023-01-08T05:05:29;98259.66;;;7.70;100.00
56182;BME280;51963;46.052;14.544;2023-01-08T05:07:55;98250.13;;;7.69;100.00
56182;BME280;51963;46.052;14.544;2023-01-08T05:10:21;98261.75;;;7.75;100.00
56182;BME280;51963;46.052;14.544;2023-01-08T05:12:46;98258.03;;;7.61;100.00
56182;BME280;51963;46.052;14.544;2023-01-08T05:15:12;98259.50;;;7.63;100.00
56182;BME280;51963;46.052;14.544;2023-01-08T05:17:38;98251.34;;;7.50;100.00
56182;BME280;51963;46.052;14.544;2023-01-08T05:20:03;98247.19;;;7.64;100.00
56182;BME280;51963;46.052;14.544;2023-01-08T05:22:29;98265.06;;;7.69;100.00
56182;BME280;51963;46.052;14.544;2023-01-08T05:24:55;98264.78;;;7.95;100.00
56182;BME280;51963;46.052;14.544;2023-01-08T05:27:20;98252.38;;;7.81;100.00
56182;BME280;51963;46.052;14.544;2023-01-08T05:29:46;98258.69;;;7.95;100.00
56182;BME280;51963;46.052;14.544;2023-01-08T05:32:16;98262.06;;;7.80;100.00
56182;BME280;51963;46.052;14.544;2023-01-08T05:34:43;98267.53;;;7.70;100.00
56182;BME280;51963;46.052;14.544;2023-01-08T05:37:10;98262.88;;;7.81;100.00
56182;BME280;51963;46.052;14.544;2023-01-08T05:39:36;98260.22;;;7.89;100.00
56182;BME280;51963;46.052;14.544;2023-01-08T05:42:02;98254.09;;;7.97;100.00
56182;BME280;51963;46.052;14.544;2023-01-08T05:44:28;98256.94;;;7.87;100.00
56182;BME280;51963;46.052;14.544;2023-01-08T05:46:54;98256.25;;;7.93;100.00
56182;BME280;51963;46.052;14.544;2023-01-08T05:49:20;98258.81;;;8.01;100.00
56182;BME280;51963;46.052;14.544;2023-01-08T05:51:49;98254.50;;;8.08;100.00
56182;BME280;51963;46.052;14.544;2023-01-08T05:54:15;98245.00;;;7.99;100.00
56182;BME280;51963;46.052;14.544;2023-01-08T05:56:41;98253.09;;;7.98;100.00
56182;BME280;51963;46.052;14.544;2023-01-08T05:59:12;98251.47;;;7.97;100.00
56182;BME280;51963;46.052;14.544;2023-01-08T06:01:38;98237.06;;;8.07;100.00
56182;BME280;51963;46.052;14.544;2023-01-08T06:04:04;98239.06;;;8.05;100.00
56182;BME280;51963;46.052;14.544;2023-01-08T06:06:30;98238.72;;;8.08;100.00
56182;BME280;51963;46.052;14.544;2023-01-08T06:08:55;98235.91;;;8.10;100.00
56182;BME280;51963;46.052;14.544;2023-01-08T06:11:21;98237.56;;;8.11;100.00
56182;BME280;51963;46.052;14.544;2023-01-08T06:13:46;98243.28;;;8.15;100.00
56182;BME280;51963;46.052;14.544;2023-01-08T06:16:12;98239.84;;;8.14;100.00
56182;BME280;51963;46.052;14.544;2023-01-08T06:18:39;98238.13;;;8.21;100.00
56182;BME280;51963;46.052;14.544;2023-01-08T06:21:05;98238.75;;;8.00;100.00
56182;BME280;51963;46.052;14.544;2023-01-08T06:23:31;98230.84;;;8.00;100.00
56182;BME280;51963;46.052;14.544;2023-01-08T06:25:59;98232.63;;;8.08;100.00
56182;BME280;51963;46.052;14.544;2023-01-08T06:28:25;98223.16;;;7.99;100.00
56182;BME280;51963;46.052;14.544;2023-01-08T06:30:51;98238.50;;;8.18;100.00
56182;BME280;51963;46.052;14.544;2023-01-08T06:33:18;98227.13;;;8.18;100.00
56182;BME280;51963;46.052;14.544;2023-01-08T06:35:44;98235.84;;;8.18;100.00
56182;BME280;51963;46.052;14.544;2023-01-08T06:38:10;98232.53;;;8.25;100.00
56182;BME280;51963;46.052;14.544;2023-01-08T06:40:35;98222.22;;;8.15;100.00
56182;BME280;51963;46.052;14.544;2023-01-08T06:43:03;98220.91;;;8.11;100.00
56182;BME280;51963;46.052;14.544;2023-01-08T06:45:29;98218.47;;;8.09;100.00
56182;BME280;51963;46.052;14.544;2023-01-08T06:47:59;98215.78;;;8.17;100.00
56182;BME280;51963;46.052;14.544;2023-01-08T06:50:25;98215.31;;;8.14;100.00
56182;BME280;51963;46.052;14.544;2023-01-08T06:52:54;98219.75;;;8.13;100.00
56182;BME280;51963;46.052;14.544;2023-01-08T06:55:21;98221.34;;;8.22;100.00
56182;BME280;51963;46.052;14.544;2023-01-08T06:57:47;98219.22;;;8.18;100.00
56182;BME280;51963;46.052;14.544;2023-01-08T07:00:13;98221.84;;;8.18;100.00
56182;BME280;51963;46.052;14.544;2023-01-08T07:02:39;98215.94;;;8.16;100.00
56182;BME280;51963;46.052;14.544;2023-01-08T07:05:05;98219.88;;;8.20;100.00
56182;BME280;51963;46.052;14.544;2023-01-08T07:07:31;98220.78;;;8.27;100.00
56182;BME280;51963;46.052;14.544;2023-01-08T07:09:57;98215.25;;;8.22;100.00
56182;BME280;51963;46.052;14.544;2023-01-08T07:12:23;98219.50;;;8.23;100.00
56182;BME280;51963;46.052;14.544;2023-01-08T07:14:49;98218.13;;;8.12;100.00
56182;BME280;51963;46.052;14.544;2023-01-08T07:17:14;98223.91;;;8.07;100.00
56182;BME280;51963;46.052;14.544;2023-01-08T07:19:40;98217.28;;;8.12;100.00
56182;BME280;51963;46.052;14.544;2023-01-08T07:22:08;98221.91;;;8.10;100.00
56182;BME280;51963;46.052;14.544;2023-01-08T07:24:33;98224.69;;;8.16;100.00
56182;BME280;51963;46.052;14.544;2023-01-08T07:26:59;98222.97;;;8.24;100.00
56182;BME280;51963;46.052;14.544;2023-01-08T07:29:25;98220.03;;;8.42;100.00
56182;BME280;51963;46.052;14.544;2023-01-08T07:31:52;98205.81;;;8.28;100.00
56182;BME280;51963;46.052;14.544;2023-01-08T07:34:18;98214.44;;;8.21;100.00
56182;BME280;51963;46.052;14.544;2023-01-08T07:36:43;98207.69;;;8.19;100.00
56182;BME280;51963;46.052;14.544;2023-01-08T07:39:09;98206.53;;;8.21;100.00
56182;BME280;51963;46.052;14.544;2023-01-08T07:41:35;98206.19;;;8.25;100.00
56182;BME280;51963;46.052;14.544;2023-01-08T07:44:00;98208.28;;;8.29;100.00
56182;BME280;51963;46.052;14.544;2023-01-08T07:46:27;98198.63;;;8.21;100.00
56182;BME280;51963;46.052;14.544;2023-01-08T07:48:54;98207.13;;;8.32;100.00
56182;BME280;51963;46.052;14.544;2023-01-08T07:51:20;98204.00;;;8.28;100.00
56182;BME280;51963;46.052;14.544;2023-01-08T07:53:46;98203.41;;;8.41;100.00
56182;BME280;51963;46.052;14.544;2023-01-08T07:56:11;98198.44;;;8.23;100.00
56182;BME280;51963;46.052;14.544;2023-01-08T07:58:37;98212.38;;;8.32;100.00
56182;BME280;51963;46.052;14.544;2023-01-08T08:01:06;98208.31;;;8.44;100.00
56182;BME280;51963;46.052;14.544;2023-01-08T08:03:32;98199.56;;;8.52;100.00
56182;BME280;51963;46.052;14.544;2023-01-08T08:05:59;98204.75;;;8.60;100.00
56182;BME280;51963;46.052;14.544;2023-01-08T08:08:25;98187.41;;;8.43;100.00
56182;BME280;51963;46.052;14.544;2023-01-08T08:10:51;98194.31;;;8.44;100.00
56182;BME280;51963;46.052;14.544;2023-01-08T08:13:17;98201.84;;;8.32;100.00
56182;BME280;51963;46.052;14.544;2023-01-08T08:15:43;98193.75;;;8.33;100.00
56182;BME280;51963;46.052;14.544;2023-01-08T08:18:09;98197.78;;;8.44;100.00
56182;BME280;51963;46.052;14.544;2023-01-08T08:20:36;98199.44;;;8.45;100.00
56182;BME280;51963;46.052;14.544;2023-01-08T08:23:06;98203.50;;;8.48;100.00
56182;BME280;51963;46.052;14.544;2023-01-08T08:25:35;98199.75;;;8.50;100.00
56182;BME280;51963;46.052;14.544;2023-01-08T08:28:02;98207.34;;;8.45;100.00
56182;BME280;51963;46.052;14.544;2023-01-08T08:30:29;98190.25;;;8.41;100.00
56182;BME280;51963;46.052;14.544;2023-01-08T08:32:58;98189.13;;;8.35;100.00
56182;BME280;51963;46.052;14.544;2023-01-08T08:35:25;98195.28;;;8.28;100.00
56182;BME280;51963;46.052;14.544;2023-01-08T08:37:51;98198.78;;;8.43;100.00
56182;BME280;51963;46.052;14.544;2023-01-08T08:40:17;98196.50;;;8.40;100.00
56182;BME280;51963;46.052;14.544;2023-01-08T08:42:58;98181.34;;;8.19;100.00
56182;BME280;51963;46.052;14.544;2023-01-08T08:45:25;98185.22;;;8.31;100.00
56182;BME280;51963;46.052;14.544;2023-01-08T08:47:51;98190.81;;;8.28;100.00
56182;BME280;51963;46.052;14.544;2023-01-08T08:50:17;98182.63;;;8.23;100.00
56182;BME280;51963;46.052;14.544;2023-01-08T08:52:42;98197.94;;;8.28;100.00
56182;BME280;51963;46.052;14.544;2023-01-08T08:55:13;98191.03;;;8.42;100.00
56182;BME280;51963;46.052;14.544;2023-01-08T08:57:40;98184.09;;;8.49;100.00
56182;BME280;51963;46.052;14.544;2023-01-08T09:00:06;98192.31;;;8.46;100.00
56182;BME280;51963;46.052;14.544;2023-01-08T09:02:33;98190.94;;;8.35;100.00
56182;BME280;51963;46.052;14.544;2023-01-08T09:04:59;98193.03;;;8.40;100.00
56182;BME280;51963;46.052;14.544;2023-01-08T09:07:25;98185.91;;;8.25;100.00
56182;BME280;51963;46.052;14.544;2023-01-08T09:09:50;98183.56;;;8.30;100.00
56182;BME280;51963;46.052;14.544;2023-01-08T09:12:16;98184.22;;;8.32;100.00
56182;BME280;51963;46.052;14.544;2023-01-08T09:14:42;98190.75;;;8.36;100.00
56182;BME280;51963;46.052;14.544;2023-01-08T09:17:08;98175.31;;;8.33;100.00
56182;BME280;51963;46.052;14.544;2023-01-08T09:19:33;98193.22;;;8.38;100.00
56182;BME280;51963;46.052;14.544;2023-01-08T09:22:00;98196.19;;;8.58;100.00
56182;BME280;51963;46.052;14.544;2023-01-08T09:24:27;98188.28;;;8.58;100.00
56182;BME280;51963;46.052;14.544;2023-01-08T09:26:59;98169.63;;;8.45;100.00
56182;BME280;51963;46.052;14.544;2023-01-08T09:29:25;98189.00;;;8.52;100.00
56182;BME280;51963;46.052;14.544;2023-01-08T09:31:50;98187.19;;;8.29;100.00
56182;BME280;51963;46.052;14.544;2023-01-08T09:34:16;98197.09;;;8.27;100.00
56182;BME280;51963;46.052;14.544;2023-01-08T09:36:42;98181.13;;;8.29;100.00
56182;BME280;51963;46.052;14.544;2023-01-08T09:39:08;98179.66;;;8.26;100.00
56182;BME280;51963;46.052;14.544;2023-01-08T09:41:42;98184.50;;;8.37;100.00
56182;BME280;51963;46.052;14.544;2023-01-08T09:44:14;98184.03;;;8.57;100.00
56182;BME280;51963;46.052;14.544;2023-01-08T09:46:43;98169.94;;;8.50;100.00
56182;BME280;51963;46.052;14.544;2023-01-08T09:49:16;98160.78;;;8.76;100.00
56182;BME280;51963;46.052;14.544;2023-01-08T09:51:46;98156.59;;;8.66;100.00
56182;BME280;51963;46.052;14.544;2023-01-08T09:54:14;98146.41;;;8.93;100.00
56182;BME280;51963;46.052;14.544;2023-01-08T09:56:41;98129.97;;;8.91;100.00
56182;BME280;51963;46.052;14.544;2023-01-08T09:59:12;98141.03;;;9.02;100.00
56182;BME280;51963;46.052;14.544;2023-01-08T10:01:41;98131.13;;;9.04;100.00
56182;BME280;51963;46.052;14.544;2023-01-08T10:06:40;98133.22;;;9.08;100.00
56182;BME280;51963;46.052;14.544;2023-01-08T10:09:13;98116.66;;;9.15;100.00
56182;BME280;51963;46.052;14.544;2023-01-08T10:11:42;98116.38;;;9.24;100.00
56182;BME280;51963;46.052;14.544;2023-01-08T10:14:33;98114.59;;;9.47;100.00
56182;BME280;51963;46.052;14.544;2023-01-08T10:17:07;98119.72;;;9.33;100.00
56182;BME280;51963;46.052;14.544;2023-01-08T10:19:37;98121.66;;;9.61;100.00
56182;BME280;51963;46.052;14.544;2023-01-08T10:22:12;98122.81;;;9.59;100.00
56182;BME280;51963;46.052;14.544;2023-01-08T10:24:42;98114.91;;;9.80;100.00
56182;BME280;51963;46.052;14.544;2023-01-08T10:27:12;98111.22;;;9.96;100.00
56182;BME280;51963;46.052;14.544;2023-01-08T10:29:39;98103.72;;;10.00;100.00
56182;BME280;51963;46.052;14.544;2023-01-08T10:32:28;98096.00;;;9.98;100.00
56182;BME280;51963;46.052;14.544;2023-01-08T10:34:55;98098.59;;;10.20;100.00
56182;BME280;51963;46.052;14.544;2023-01-08T10:37:35;98087.53;;;10.38;100.00
56182;BME280;51963;46.052;14.544;2023-01-08T10:43:06;98087.47;;;10.03;100.00
56182;BME280;51963;46.052;14.544;2023-01-08T10:45:33;98096.38;;;10.24;100.00
56182;BME280;51963;46.052;14.544;2023-01-08T10:48:01;98093.09;;;10.22;100.00
56182;BME280;51963;46.052;14.544;2023-01-08T10:50:32;98082.22;;;10.32;100.00
56182;BME280;51963;46.052;14.544;2023-01-08T10:53:00;98075.88;;;10.26;100.00
56182;BME280;51963;46.052;14.544;2023-01-08T10:55:28;98077.88;;;10.24;100.00
56182;BME280;51963;46.052;14.544;2023-01-08T10:57:57;98064.25;;;10.49;100.00
56182;BME280;51963;46.052;14.544;2023-01-08T11:00:28;98058.44;;;10.32;100.00
56182;BME280;51963;46.052;14.544;2023-01-08T11:02:56;98062.47;;;10.56;100.00
56182;BME280;51963;46.052;14.544;2023-01-08T11:05:35;98041.06;;;10.86;100.00
56182;BME280;51963;46.052;14.544;2023-01-08T11:08:02;98043.31;;;10.96;100.00
56182;BME280;51963;46.052;14.544;2023-01-08T11:10:31;98042.03;;;10.71;100.00
56182;BME280;51963;46.052;14.544;2023-01-08T11:13:02;98037.81;;;10.49;100.00
56182;BME280;51963;46.052;14.544;2023-01-08T11:15:33;98040.16;;;10.65;100.00
56182;BME280;51963;46.052;14.544;2023-01-08T11:18:21;98028.41;;;10.39;100.00
56182;BME280;51963;46.052;14.544;2023-01-08T11:20:48;98031.16;;;10.24;100.00
56182;BME280;51963;46.052;14.544;2023-01-08T11:23:25;98014.00;;;10.13;100.00
56182;BME280;51963;46.052;14.544;2023-01-08T11:26:07;98014.81;;;10.42;100.00
56182;BME280;51963;46.052;14.544;2023-01-08T11:28:50;97998.00;;;10.50;100.00
56182;BME280;51963;46.052;14.544;2023-01-08T11:31:21;97992.63;;;10.79;100.00
56182;BME280;51963;46.052;14.544;2023-01-08T11:33:51;97996.88;;;10.73;100.00
56182;BME280;51963;46.052;14.544;2023-01-08T11:36:22;97990.81;;;10.86;100.00
56182;BME280;51963;46.052;14.544;2023-01-08T11:38:49;97984.69;;;10.85;100.00
56182;BME280;51963;46.052;14.544;2023-01-08T11:42:00;97999.38;;;10.88;100.00
56182;BME280;51963;46.052;14.544;2023-01-08T11:44:41;97971.25;;;10.74;100.00
56182;BME280;51963;46.052;14.544;2023-01-08T11:47:28;97981.44;;;10.77;100.00
56182;BME280;51963;46.052;14.544;2023-01-08T11:50:13;97978.91;;;10.62;100.00
56182;BME280;51963;46.052;14.544;2023-01-08T12:00:57;97972.44;;;10.71;100.00
56182;BME280;51963;46.052;14.544;2023-01-08T12:03:42;97971.84;;;10.69;100.00
56182;BME280;51963;46.052;14.544;2023-01-08T12:06:24;97960.72;;;10.87;100.00
56182;BME280;51963;46.052;14.544;2023-01-08T12:09:03;97950.72;;;10.76;100.00
56182;BME280;51963;46.052;14.544;2023-01-08T12:33:00;97949.59;;;11.25;100.00
56182;BME280;51963;46.052;14.544;2023-01-08T12:35:38;97932.69;;;11.13;100.00
56182;BME280;51963;46.052;14.544;2023-01-08T12:38:25;97939.22;;;11.30;100.00
56182;BME280;51963;46.052;14.544;2023-01-08T12:43:43;97929.81;;;11.08;100.00
56182;BME280;51963;46.052;14.544;2023-01-08T12:46:11;97927.38;;;10.99;100.00
56182;BME280;51963;46.052;14.544;2023-01-08T12:48:44;97939.59;;;11.14;100.00
56182;BME280;51963;46.052;14.544;2023-01-08T12:51:38;97929.03;;;11.14;100.00
56182;BME280;51963;46.052;14.544;2023-01-08T12:56:44;97928.22;;;11.20;100.00
56182;BME280;51963;46.052;14.544;2023-01-08T13:04:43;97924.34;;;11.29;100.00
56182;BME280;51963;46.052;14.544;2023-01-08T13:07:40;97921.09;;;11.27;100.00
56182;BME280;51963;46.052;14.544;2023-01-08T13:10:17;97921.69;;;11.29;100.00
56182;BME280;51963;46.052;14.544;2023-01-08T13:12:49;97908.25;;;10.97;100.00
56182;BME280;51963;46.052;14.544;2023-01-08T13:15:19;97902.13;;;10.90;100.00
56182;BME280;51963;46.052;14.544;2023-01-08T13:17:48;97895.97;;;10.63;100.00
56182;BME280;51963;46.052;14.544;2023-01-08T13:20:28;97901.72;;;10.80;100.00
56182;BME280;51963;46.052;14.544;2023-01-08T13:22:57;97916.13;;;10.77;100.00
56182;BME280;51963;46.052;14.544;2023-01-08T13:27:49;97913.47;;;10.70;100.00
56182;BME280;51963;46.052;14.544;2023-01-08T13:33:00;97908.63;;;10.81;100.00
56182;BME280;51963;46.052;14.544;2023-01-08T13:35:27;97913.06;;;10.67;100.00
56182;BME280;51963;46.052;14.544;2023-01-08T13:38:13;97918.91;;;10.55;100.00
56182;BME280;51963;46.052;14.544;2023-01-08T13:43:20;97916.69;;;10.59;100.00
56182;BME280;51963;46.052;14.544;2023-01-08T13:48:23;97908.34;;;10.55;100.00
56182;BME280;51963;46.052;14.544;2023-01-08T13:50:50;97917.41;;;10.39;100.00
56182;BME280;51963;46.052;14.544;2023-01-08T13:53:16;97917.47;;;10.53;100.00
56182;BME280;51963;46.052;14.544;2023-01-08T13:55:54;97923.69;;;10.38;100.00
56182;BME280;51963;46.052;14.544;2023-01-08T13:58:31;97915.16;;;10.36;100.00
56182;BME280;51963;46.052;14.544;2023-01-08T14:00:58;97906.03;;;10.39;100.00
56182;BME280;51963;46.052;14.544;2023-01-08T14:06:20;97914.25;;;10.57;100.00
56182;BME280;51963;46.052;14.544;2023-01-08T14:08:50;97908.03;;;10.37;100.00
56182;BME280;51963;46.052;14.544;2023-01-08T14:11:19;97904.03;;;10.48;100.00
56182;BME280;51963;46.052;14.544;2023-01-08T14:13:45;97907.69;;;10.40;100.00